createdAt,value
2023-03-06T00:03:59.763Z,81.41
2023-03-06T00:08:59.241Z,81.50
2023-03-06T00:13:59.928Z,81.58
2023-03-06T00:18:58.814Z,81.55
2023-03-06T00:23:58.158Z,81.63
2023-03-06T00:28:57.421Z,81.68
2023-03-06T00:33:56.748Z,81.67
2023-03-06T00:38:56.331Z,81.71
2023-03-06T00:43:56.890Z,81.81
2023-03-06T00:48:55.738Z,81.90
2023-03-06T00:53:55.252Z,81.96
2023-03-06T00:58:55.466Z,82.02
2023-03-06T01:03:57.703Z,82.07
2023-03-06T01:08:56.599Z,82.03
2023-03-06T01:13:56.944Z,82.11
2023-03-06T01:18:55.801Z,82.22
2023-03-06T01:23:55.986Z,82.30
2023-03-06T01:28:57.487Z,82.39
2023-03-06T01:33:56.762Z,82.54
2023-03-06T01:38:55.961Z,82.59
2023-03-06T01:43:55.435Z,82.61
2023-03-06T01:48:59.963Z,82.69
2023-03-06T01:54:01.796Z,82.76
2023-03-06T01:59:02.307Z,82.77
2023-03-06T02:04:02.904Z,82.90
2023-03-06T02:09:02.590Z,83.00
2023-03-06T02:14:01.737Z,83.00
2023-03-06T02:19:03.337Z,83.07
2023-03-06T02:24:29.033Z,83.10
2023-03-06T02:29:31.715Z,83.16
2023-03-06T02:34:57.571Z,83.21
2023-03-06T02:40:09.388Z,83.31
2023-03-06T02:45:14.325Z,83.28
2023-03-06T02:50:15.167Z,83.30
2023-03-06T02:55:15.948Z,83.26
2023-03-06T03:00:18.383Z,83.20
2023-03-06T03:05:17.853Z,83.17
2023-03-06T03:10:20.344Z,83.13
2023-03-06T03:15:19.764Z,83.09
2023-03-06T03:20:24.116Z,83.03
2023-03-06T03:25:26.024Z,83.07
2023-03-06T03:30:27.214Z,83.00
2023-03-06T03:35:27.114Z,83.00
2023-03-06T03:40:29.707Z,83.00
2023-03-06T03:45:30.285Z,82.98
2023-03-06T03:50:30.326Z,82.94
2023-03-06T03:55:31.178Z,83.00
2023-03-06T04:00:31.229Z,83.07
2023-03-06T04:05:37.444Z,83.05
2023-03-06T04:10:39.978Z,83.04
2023-03-06T04:15:40.426Z,83.09
2023-03-06T04:20:41.409Z,83.11
2023-03-06T04:25:42.082Z,83.08
2023-03-06T04:30:44.099Z,83.10
2023-03-06T04:35:44.319Z,83.11
2023-03-06T04:40:50.333Z,83.10
2023-03-06T04:45:49.395Z,83.13
2023-03-06T04:50:48.868Z,83.14
2023-03-06T04:55:47.928Z,83.11
2023-03-06T05:00:47.693Z,83.11
2023-03-06T05:05:46.356Z,83.14
2023-03-06T05:10:46.074Z,83.28
2023-03-06T05:15:46.662Z,83.30
2023-03-06T05:20:45.724Z,83.36
2023-03-06T05:25:45.653Z,83.40
2023-03-06T05:30:45.798Z,83.40
2023-03-06T05:35:50.042Z,83.50
2023-03-06T05:40:50.153Z,83.65
2023-03-06T05:45:50.391Z,83.81
2023-03-06T05:50:58.971Z,83.88
2023-03-06T05:56:03.994Z,83.95
2023-03-06T06:01:09.647Z,84.07
2023-03-06T06:06:12.789Z,84.11
2023-03-06T06:11:15.051Z,84.11
2023-03-06T06:16:17.157Z,84.09
2023-03-06T06:21:17.356Z,84.00
2023-03-06T06:26:16.806Z,84.03
2023-03-06T06:31:16.859Z,83.93
2023-03-06T06:36:24.177Z,83.76
2023-03-06T06:52:06.279Z,82.54
2023-03-06T06:57:05.920Z,82.23
2023-03-06T07:02:06.223Z,81.90
2023-03-06T07:07:04.791Z,81.82
2023-03-06T07:12:04.010Z,81.46
2023-03-06T07:17:03.260Z,81.31
2023-03-06T07:22:02.851Z,80.84
2023-03-06T07:27:01.778Z,80.29
2023-03-06T07:32:01.384Z,79.88
2023-03-06T07:37:00.308Z,79.55
2023-03-06T07:42:00.139Z,78.75
2023-03-06T07:46:59.972Z,77.27
2023-03-06T07:51:59.400Z,76.79
2023-03-06T07:56:58.015Z,76.07
2023-03-06T08:01:59.232Z,74.82
2023-03-06T08:07:00.055Z,73.52
2023-03-06T08:12:00.145Z,72.88
2023-03-06T08:17:00.896Z,72.30
2023-03-06T08:21:59.842Z,70.54
2023-03-06T08:26:59.001Z,70.47
2023-03-06T08:31:58.693Z,69.74
2023-03-06T08:36:57.718Z,70.58
2023-03-06T08:41:57.144Z,70.63
2023-03-06T08:46:56.569Z,69.65
2023-03-06T08:51:56.285Z,69.31
2023-03-06T08:56:55.555Z,69.19
2023-03-06T09:01:55.360Z,69.31
2023-03-06T09:06:55.658Z,69.11
2023-03-06T09:11:56.522Z,68.99
2023-03-06T09:16:56.089Z,69.37
2023-03-06T09:21:55.429Z,69.38
2023-03-06T09:26:56.158Z,68.56
2023-03-06T09:31:55.367Z,67.82
2023-03-06T09:36:57.062Z,67.99
2023-03-06T09:41:58.990Z,67.30
2023-03-06T09:47:16.935Z,65.29
2023-03-06T09:52:36.222Z,63.47
2023-03-06T09:57:39.565Z,63.97
2023-03-06T10:02:45.494Z,64.99
2023-03-06T10:07:54.414Z,64.13
2023-03-06T10:13:04.617Z,62.60
2023-03-06T10:18:07.427Z,62.04
2023-03-06T10:23:26.557Z,61.83
2023-03-06T10:28:36.975Z,62.53
2023-03-06T10:33:54.770Z,61.47
2023-03-06T10:38:54.605Z,61.76
2023-03-06T10:49:31.566Z,63.19
2023-03-06T10:54:32.595Z,63.62
2023-03-06T10:59:33.204Z,62.57
2023-03-06T11:04:35.988Z,63.35
2023-03-06T11:09:36.360Z,64.28
2023-03-06T11:14:36.311Z,64.97
2023-03-06T11:19:35.977Z,65.65
2023-03-06T11:24:43.846Z,65.83
2023-03-06T11:29:48.030Z,66.25
2023-03-06T11:34:53.766Z,67.08
2023-03-06T11:40:05.423Z,67.79
2023-03-06T11:45:26.039Z,67.51
2023-03-06T11:50:36.003Z,66.88
2023-03-06T11:56:23.008Z,67.32
2023-03-06T12:01:33.866Z,67.92
2023-03-06T12:06:49.777Z,68.92
2023-03-06T12:11:59.677Z,69.43
2023-03-06T12:17:32.979Z,69.50
2023-03-06T12:22:57.839Z,69.15
2023-03-06T12:28:24.691Z,69.55
2023-03-06T12:33:37.886Z,70.18
2023-03-06T12:39:17.780Z,70.76
2023-03-06T12:45:28.619Z,70.94
2023-03-06T12:50:31.519Z,71.18
2023-03-06T12:55:33.249Z,71.69
2023-03-06T13:01:07.586Z,71.79
2023-03-06T13:06:34.139Z,71.71
2023-03-06T13:12:00.190Z,71.94
2023-03-06T13:17:39.268Z,72.19
2023-03-06T13:22:38.655Z,72.33
2023-03-06T13:28:06.067Z,72.42
2023-03-06T13:33:26.346Z,72.51
2023-03-06T13:38:59.749Z,72.83
2023-03-06T13:44:02.206Z,73.15
2023-03-06T13:49:25.239Z,73.55
2023-03-06T13:54:48.243Z,73.88
2023-03-06T14:00:23.249Z,74.22
2023-03-06T14:05:23.135Z,74.47
2023-03-06T14:10:32.538Z,74.74
2023-03-06T14:15:43.430Z,75.00
2023-03-06T14:20:50.496Z,75.17
2023-03-06T14:25:56.223Z,75.36
2023-03-06T14:30:58.265Z,75.50
2023-03-06T14:36:09.714Z,75.72
2023-03-06T14:41:13.024Z,75.94
2023-03-06T14:46:24.659Z,76.08
2023-03-06T14:51:26.991Z,76.24
2023-03-06T14:56:29.288Z,76.33
2023-03-06T15:01:36.289Z,76.43
2023-03-06T15:06:43.595Z,76.49
2023-03-06T15:17:32.585Z,76.90
2023-03-06T15:22:37.982Z,77.08
2023-03-06T15:27:37.722Z,77.24
2023-03-06T15:32:42.567Z,77.33
2023-03-06T15:37:42.013Z,77.44
2023-03-06T15:42:43.628Z,77.63
2023-03-06T15:47:45.142Z,77.68
2023-03-06T15:52:44.993Z,77.92
2023-03-06T15:57:52.245Z,78.05
2023-03-06T16:02:54.102Z,78.29
2023-03-06T16:07:53.362Z,78.35
2023-03-06T16:12:57.039Z,78.49
2023-03-06T16:17:56.324Z,78.67
2023-03-06T16:22:56.093Z,78.89
2023-03-06T16:27:59.595Z,79.29
2023-03-06T16:32:59.223Z,79.59
2023-03-06T16:37:58.835Z,79.89
2023-03-06T16:42:59.133Z,80.15
2023-03-06T16:47:59.433Z,80.47
2023-03-06T16:53:01.033Z,80.70
2023-03-06T16:58:00.583Z,80.96
2023-03-06T17:03:00.869Z,81.13
2023-03-06T17:08:01.157Z,81.27
2023-03-06T17:13:03.321Z,81.47
2023-03-06T17:18:03.881Z,81.61
2023-03-06T17:23:04.889Z,81.75
2023-03-06T17:28:05.069Z,81.79
2023-03-06T17:33:07.990Z,81.81
2023-03-06T17:38:07.276Z,81.83
2023-03-06T17:43:06.119Z,81.88
2023-03-06T17:48:05.608Z,81.89
2023-03-06T17:53:06.036Z,81.94
2023-03-06T17:58:05.253Z,81.94
2023-03-06T18:03:05.106Z,82.04
2023-03-06T18:08:05.055Z,82.10
2023-03-06T18:13:03.664Z,82.11
2023-03-06T18:18:02.805Z,82.21
2023-03-06T18:23:03.841Z,82.27
2023-03-06T18:28:03.219Z,82.30
2023-03-06T18:33:02.546Z,82.34
2023-03-06T18:38:02.677Z,82.40
2023-03-06T18:43:02.036Z,82.44
2023-03-06T18:48:00.680Z,82.50
2023-03-06T18:52:59.481Z,82.54
2023-03-06T18:58:00.305Z,82.65
2023-03-06T19:02:59.714Z,82.68
2023-03-06T19:07:59.525Z,82.66
2023-03-06T19:12:59.057Z,82.62
2023-03-06T19:17:58.754Z,82.60
2023-03-06T19:22:58.535Z,82.61
2023-03-06T19:27:58.308Z,82.67
2023-03-06T19:32:58.437Z,82.62
2023-03-06T19:37:57.873Z,82.67
2023-03-06T19:43:00.908Z,82.63
2023-03-06T19:48:01.878Z,82.64
2023-03-06T19:53:02.646Z,82.64
2023-03-06T19:58:02.768Z,82.75
2023-03-06T20:03:02.882Z,82.89
2023-03-06T20:08:02.619Z,82.90
2023-03-06T20:13:02.376Z,82.94
2023-03-06T20:18:04.256Z,82.96
2023-03-06T20:23:04.812Z,83.03
2023-03-06T20:28:04.476Z,83.04
2023-03-06T20:33:04.011Z,82.87
2023-03-06T20:38:03.202Z,82.82
2023-03-06T20:43:02.247Z,82.95
2023-03-06T20:48:01.348Z,83.14
2023-03-06T20:53:02.366Z,83.28
2023-03-06T20:58:02.011Z,83.32
2023-03-06T21:03:01.369Z,83.46
2023-03-06T21:08:00.997Z,83.52
2023-03-06T21:13:00.526Z,83.50
2023-03-06T21:17:59.765Z,83.56
2023-03-06T21:23:02.073Z,83.55
2023-03-06T21:28:01.179Z,83.55
2023-03-06T21:33:00.779Z,83.56
2023-03-06T21:37:59.929Z,83.49
2023-03-06T21:42:59.550Z,83.43
2023-03-06T21:47:59.299Z,83.46
2023-03-06T21:53:00.878Z,83.47
2023-03-06T21:58:00.358Z,83.62
2023-03-06T22:02:59.919Z,83.73
2023-03-06T22:07:59.261Z,83.82
2023-03-06T22:12:58.765Z,83.87
2023-03-06T22:17:58.020Z,83.92
2023-03-06T22:22:56.890Z,83.88
2023-03-06T22:27:55.923Z,83.88
2023-03-06T22:32:57.059Z,83.94
2023-03-06T22:37:56.500Z,83.97
2023-03-06T22:42:56.008Z,83.91
2023-03-06T22:48:02.384Z,83.86
2023-03-06T22:53:08.625Z,83.69
2023-03-06T22:58:07.884Z,83.61
2023-03-06T23:03:07.463Z,83.57
2023-03-06T23:08:07.097Z,83.39
2023-03-06T23:13:05.608Z,83.19
2023-03-06T23:18:24.049Z,82.82
2023-03-06T23:23:44.316Z,82.67
2023-03-06T23:28:44.530Z,82.58
2023-03-06T23:33:44.266Z,82.50
2023-03-06T23:38:44.312Z,82.49
2023-03-06T23:43:44.073Z,82.59
2023-03-06T23:48:46.153Z,82.72
2023-03-06T23:53:45.306Z,82.71
2023-03-06T23:58:45.672Z,82.66
